createdAt,value
2022-08-27T00:05:32.328Z,101558.00
2022-08-27T00:11:30.612Z,101558.66
2022-08-27T00:17:20.833Z,101559.09
2022-08-27T00:23:07.597Z,101547.03
2022-08-27T00:29:13.087Z,101539.97
2022-08-27T00:35:00.134Z,101539.94
2022-08-27T00:40:47.568Z,101541.66
2022-08-27T00:47:05.245Z,101539.16
2022-08-27T00:53:03.001Z,101538.78
2022-08-27T00:58:52.137Z,101545.53
2022-08-27T01:04:42.607Z,101531.59
2022-08-27T01:10:32.939Z,101533.09
2022-08-27T01:16:26.907Z,101536.72
2022-08-27T01:22:46.254Z,101539.41
2022-08-27T01:28:37.590Z,101541.75
2022-08-27T01:34:26.569Z,101535.38
2022-08-27T01:40:16.819Z,101537.31
2022-08-27T01:46:04.371Z,101524.09
2022-08-27T01:51:51.162Z,101534.47
2022-08-27T01:57:39.837Z,101524.78
2022-08-27T02:03:26.995Z,101524.22
2022-08-27T02:09:13.889Z,101530.97
2022-08-27T02:15:02.033Z,101528.03
2022-08-27T02:20:49.597Z,101531.63
2022-08-27T02:26:59.407Z,101531.97
2022-08-27T02:32:49.582Z,101530.63
2022-08-27T02:38:37.902Z,101537.13
2022-08-27T02:44:25.118Z,101537.16
2022-08-27T02:50:13.741Z,101534.78
2022-08-27T02:56:10.063Z,101542.63
2022-08-27T03:01:57.126Z,101542.75
2022-08-27T03:07:44.663Z,101532.88
2022-08-27T03:13:38.298Z,101535.16
2022-08-27T03:19:28.456Z,101544.88
2022-08-27T03:25:21.290Z,101534.28
2022-08-27T03:31:15.853Z,101537.53
2022-08-27T03:37:04.804Z,101540.50
2022-08-27T03:42:51.866Z,101539.41
2022-08-27T03:48:39.304Z,101540.00
2022-08-27T03:54:26.998Z,101532.84
2022-08-27T04:00:24.732Z,101536.06
2022-08-27T04:06:14.860Z,101528.03
2022-08-27T04:12:02.206Z,101527.84
2022-08-27T04:17:49.313Z,101527.94
2022-08-27T04:23:55.223Z,101535.31
2022-08-27T04:29:48.139Z,101549.38
2022-08-27T04:35:35.535Z,101541.91
2022-08-27T04:41:25.048Z,101542.22
2022-08-27T04:47:12.685Z,101541.03
2022-08-27T04:52:59.433Z,101553.25
2022-08-27T04:58:54.551Z,101541.09
2022-08-27T05:04:44.425Z,101548.13
2022-08-27T05:10:31.525Z,101547.41
2022-08-27T05:16:31.536Z,101547.16
2022-08-27T05:22:21.362Z,101549.75
2022-08-27T05:28:10.689Z,101557.63
2022-08-27T05:34:00.009Z,101562.19
2022-08-27T05:39:47.212Z,101570.69
2022-08-27T05:45:41.754Z,101576.31
2022-08-27T05:51:33.361Z,101572.47
2022-08-27T05:57:35.649Z,101577.13
2022-08-27T06:03:34.782Z,101583.75
2022-08-27T06:09:45.053Z,101577.00
2022-08-27T06:15:35.125Z,101579.00
2022-08-27T06:21:25.050Z,101580.88
2022-08-27T06:27:18.292Z,101580.09
2022-08-27T06:33:05.285Z,101581.91
2022-08-27T06:39:03.936Z,101588.25
2022-08-27T06:44:54.608Z,101585.47
2022-08-27T06:50:43.211Z,101583.66
2022-08-27T06:57:11.873Z,101586.75
2022-08-27T07:02:59.027Z,101598.31
2022-08-27T07:08:53.145Z,101605.72
2022-08-27T07:14:40.725Z,101606.91
2022-08-27T07:20:27.554Z,101607.88
2022-08-27T07:26:16.295Z,101602.66
2022-08-27T07:32:04.093Z,101602.66
2022-08-27T07:37:50.979Z,101617.84
2022-08-27T07:43:57.655Z,101605.13
2022-08-27T07:49:44.947Z,101611.00
2022-08-27T07:55:32.148Z,101627.69
2022-08-27T08:01:19.639Z,101610.22
2022-08-27T08:07:07.332Z,101621.91
2022-08-27T08:12:54.321Z,101629.72
2022-08-27T08:18:43.066Z,101623.84
2022-08-27T08:24:30.005Z,101628.56
2022-08-27T08:30:17.178Z,101619.97
2022-08-27T08:36:15.750Z,101624.41
2022-08-27T08:42:05.234Z,101616.72
2022-08-27T08:48:00.031Z,101626.59
2022-08-27T08:53:56.432Z,101624.34
2022-08-27T08:59:51.086Z,101625.31
2022-08-27T09:05:46.867Z,101623.84
2022-08-27T09:11:52.973Z,101623.59
2022-08-27T09:17:42.039Z,101618.63
2022-08-27T09:23:57.663Z,101617.50
2022-08-27T09:29:55.358Z,101619.75
2022-08-27T09:35:48.225Z,101607.38
2022-08-27T09:49:24.257Z,101617.41
2022-08-27T10:25:23.507Z,101593.69
2022-08-27T10:56:15.613Z,101572.56
2022-08-27T11:31:44.308Z,101551.72
2022-08-27T11:38:36.671Z,101560.41
2022-08-27T11:44:46.747Z,101554.34
2022-08-27T11:50:39.252Z,101551.75
2022-08-27T11:56:40.706Z,101559.75
2022-08-27T12:02:30.409Z,101547.00
2022-08-27T12:08:27.248Z,101565.88
2022-08-27T12:15:00.572Z,101558.25
2022-08-27T12:21:26.297Z,101555.16
2022-08-27T12:27:16.282Z,101555.16
2022-08-27T12:33:29.946Z,101555.25
2022-08-27T12:39:20.691Z,101545.28
2022-08-27T12:45:07.873Z,101548.78
2022-08-27T12:51:03.436Z,101537.31
2022-08-27T12:57:30.391Z,101539.53
2022-08-27T13:03:28.653Z,101541.03
2022-08-27T13:09:15.496Z,101548.16
2022-08-27T13:15:11.030Z,101522.53
2022-08-27T13:21:03.310Z,101527.41
2022-08-27T13:26:53.866Z,101516.81
2022-08-27T13:32:43.988Z,101509.66
2022-08-27T13:38:35.564Z,101494.84
2022-08-27T13:44:28.563Z,101499.25
2022-08-27T13:50:27.381Z,101510.22
2022-08-27T13:56:35.265Z,101510.94
2022-08-27T14:02:30.318Z,101510.06
2022-08-27T14:08:20.273Z,101502.91
2022-08-27T14:14:07.481Z,101498.56
2022-08-27T14:20:01.738Z,101502.56
2022-08-27T14:25:51.981Z,101497.00
2022-08-27T14:31:43.468Z,101502.34
2022-08-27T14:37:30.782Z,101496.03
2022-08-27T14:43:18.090Z,101501.97
2022-08-27T14:49:13.671Z,101501.41
2022-08-27T14:55:01.184Z,101505.38
2022-08-27T15:00:48.700Z,101510.41
2022-08-27T15:06:35.772Z,101529.00
2022-08-27T15:12:26.400Z,101529.31
2022-08-27T15:18:14.994Z,101526.78
2022-08-27T15:24:13.066Z,101529.81
2022-08-27T15:30:00.576Z,101525.47
2022-08-27T15:35:59.833Z,101518.03
2022-08-27T15:42:05.633Z,101509.16
2022-08-27T15:47:53.451Z,101513.50
2022-08-27T15:53:45.413Z,101515.38
2022-08-27T15:59:37.166Z,101517.53
2022-08-27T16:05:27.084Z,101525.03
2022-08-27T16:11:15.053Z,101524.59
2022-08-27T16:17:05.564Z,101533.69
2022-08-27T16:23:07.105Z,101527.25
2022-08-27T16:28:54.462Z,101526.59
2022-08-27T16:34:55.789Z,101529.03
2022-08-27T16:41:09.711Z,101542.53
2022-08-27T16:47:23.562Z,101523.84
2022-08-27T16:53:45.806Z,101520.50
2022-08-27T17:00:28.247Z,101524.72
2022-08-27T17:12:39.916Z,101518.19
2022-08-27T17:18:27.893Z,101522.97
2022-08-27T17:24:14.870Z,101528.44
2022-08-27T17:30:02.544Z,101521.75
2022-08-27T17:36:14.625Z,101528.84
2022-08-27T17:43:49.874Z,101529.72
2022-08-27T17:57:44.270Z,101550.97
2022-08-27T18:04:23.788Z,101565.34
2022-08-27T18:33:35.308Z,101608.84
2022-08-27T18:39:25.826Z,101619.81
2022-08-27T18:45:34.751Z,101627.97
2022-08-27T18:51:22.899Z,101635.84
2022-08-27T18:57:21.751Z,101642.56
2022-08-27T19:03:14.360Z,101651.44
2022-08-27T19:09:04.801Z,101649.28
2022-08-27T19:15:09.511Z,101659.09
2022-08-27T19:20:57.614Z,101664.69
2022-08-27T19:26:57.328Z,101668.31
2022-08-27T19:32:47.106Z,101674.19
2022-08-27T19:38:35.704Z,101692.34
2022-08-27T19:44:40.337Z,101686.34
2022-08-27T19:50:27.272Z,101692.94
2022-08-27T19:56:15.348Z,101706.06
2022-08-27T20:02:02.863Z,101697.38
2022-08-27T20:07:52.160Z,101701.03
2022-08-27T20:13:47.951Z,101714.78
2022-08-27T20:19:37.807Z,101717.38
2022-08-27T20:25:25.332Z,101730.56
2022-08-27T20:31:12.676Z,101732.22
2022-08-27T20:37:02.346Z,101740.44
2022-08-27T20:42:49.467Z,101734.16
2022-08-27T20:48:36.580Z,101732.59
2022-08-27T20:54:25.598Z,101741.97
2022-08-27T21:00:22.239Z,101740.09
2022-08-27T21:06:10.202Z,101739.09
2022-08-27T21:11:57.724Z,101747.03
2022-08-27T21:17:44.459Z,101757.66
2022-08-27T21:23:32.699Z,101757.06
2022-08-27T21:29:20.181Z,101754.41
2022-08-27T21:35:33.976Z,101756.81
2022-08-27T21:41:48.055Z,101761.63
2022-08-27T21:47:38.989Z,101770.44
2022-08-27T21:53:26.951Z,101762.97
2022-08-27T21:59:14.068Z,101768.66
2022-08-27T22:05:02.141Z,101779.41
2022-08-27T22:10:53.627Z,101777.97
2022-08-27T22:16:40.821Z,101786.59
2022-08-27T22:22:31.267Z,101793.06
2022-08-27T22:28:18.255Z,101790.19
2022-08-27T22:34:05.857Z,101795.13
2022-08-27T22:39:53.213Z,101792.75
2022-08-27T22:45:41.952Z,101795.59
2022-08-27T22:51:29.181Z,101793.81
2022-08-27T22:57:16.180Z,101794.19
2022-08-27T23:03:06.462Z,101800.59
2022-08-27T23:08:54.382Z,101801.63
2022-08-27T23:14:44.065Z,101804.66
2022-08-27T23:20:31.149Z,101806.16
2022-08-27T23:26:37.296Z,101809.28
2022-08-27T23:32:24.816Z,101808.88
2022-08-27T23:38:26.314Z,101807.69
2022-08-27T23:44:13.991Z,101809.81
2022-08-27T23:50:01.737Z,101811.06
2022-08-27T23:55:48.661Z,101809.91
